createdAt,value
2022-11-15T00:11:27.493Z,8.1
2022-11-15T00:26:36.776Z,8.1
2022-11-15T00:41:46.357Z,8.1
2022-11-15T00:56:56.117Z,8.1
2022-11-15T01:12:05.665Z,8.1
2022-11-15T01:27:15.151Z,8.3
2022-11-15T01:42:25.135Z,8.4
2022-11-15T01:57:34.531Z,8.5
2022-11-15T02:12:44.423Z,8.6
2022-11-15T02:27:55.962Z,8.8
2022-11-15T02:43:08.265Z,8.9
2022-11-15T02:58:18.107Z,9.1
2022-11-15T03:13:28.381Z,9.2
2022-11-15T03:28:39.540Z,9.3
2022-11-15T03:43:48.968Z,9.3
2022-11-15T03:58:58.291Z,9.2
2022-11-15T04:14:07.944Z,9.3
2022-11-15T04:29:17.866Z,9.7
2022-11-15T04:44:27.765Z,9.9
2022-11-15T04:59:36.683Z,10.1
2022-11-15T05:14:46.012Z,10.1
2022-11-15T05:29:55.936Z,10.1
2022-11-15T05:45:05.306Z,10.1
2022-11-15T06:00:14.674Z,10
2022-11-15T06:15:24.245Z,10
2022-11-15T06:30:33.744Z,10.1
2022-11-15T06:45:42.992Z,10.1
2022-11-15T07:00:55.836Z,10
2022-11-15T07:16:05.944Z,9.9
2022-11-15T09:06:20.927Z,14.2
2022-11-15T09:21:38.863Z,12.4
2022-11-15T09:36:47.991Z,12
2022-11-15T09:51:57.280Z,11.9
2022-11-15T10:07:10.528Z,12.1
2022-11-15T10:22:20.769Z,12.1
2022-11-15T10:37:30.056Z,12.2
2022-11-15T10:52:39.854Z,12.4
2022-11-15T11:07:49.275Z,12.7
2022-11-15T11:22:58.850Z,13
2022-11-15T11:38:11.002Z,13.1
2022-11-15T11:53:23.237Z,13.4
2022-11-15T12:08:33.530Z,13.8
2022-11-15T12:58:07.564Z,17
2022-11-15T13:13:23.884Z,15.4
2022-11-15T13:28:32.671Z,14.8
2022-11-15T13:43:43.640Z,14.4
2022-11-15T13:58:57.373Z,14.2
2022-11-15T14:14:07.181Z,13.9
2022-11-15T14:29:18.270Z,13.6
2022-11-15T14:44:27.434Z,13.5
2022-11-15T14:59:36.837Z,13.3
2022-11-15T15:14:46.436Z,13.2
2022-11-15T15:29:55.593Z,13.1
2022-11-15T15:45:04.925Z,13
2022-11-15T16:00:16.922Z,12.9
2022-11-15T16:15:27.460Z,12.9
2022-11-15T16:30:36.751Z,12.8
2022-11-15T16:45:46.690Z,12.9
2022-11-15T17:00:56.904Z,12.8
2022-11-15T17:16:07.470Z,12.9
2022-11-15T17:31:17.063Z,12.8
2022-11-15T17:46:26.484Z,12.8
2022-11-15T18:01:35.983Z,12.7
2022-11-15T18:16:46.023Z,12.5
2022-11-15T18:31:56.809Z,12.4
2022-11-15T18:47:06.311Z,12.3
2022-11-15T19:02:15.646Z,12.3
2022-11-15T19:17:25.158Z,12.3
2022-11-15T19:32:34.515Z,12.2
2022-11-15T19:47:44.302Z,12.2
2022-11-15T20:02:54.436Z,12.3
2022-11-15T20:18:03.636Z,12.3
2022-11-15T20:33:13.343Z,12.3
2022-11-15T20:48:23.019Z,12.3
2022-11-15T21:03:32.816Z,12.4
2022-11-15T21:18:43.430Z,12.3
2022-11-15T21:33:53.498Z,12.3
2022-11-15T21:49:03.379Z,12.3
2022-11-15T22:04:12.959Z,12.2
2022-11-15T22:19:22.309Z,12.2
2022-11-15T22:34:32.058Z,12.2
2022-11-15T22:49:41.936Z,12.2
2022-11-15T23:04:51.896Z,12.2
2022-11-15T23:20:16.611Z,12.2
2022-11-15T23:35:56.087Z,12.1
2022-11-15T23:51:07.831Z,12.1
